Pagrindinis puslapis
METAR-TAF:

METAR-TAF

Oro uostai :

San Salvador de Chuchujus, Argentina

platuma: 24-23S, ilguma: 065-05W, Aukštis: 921 m

Dabartinis oras

Ataskaita buvo paskelbta 49 minutes, ne 12:00 UTC
Vėjas 5 kt iš Vakarų/Šiaurės Vakarų
Temperatūra 12°C
Drėgmė 76%
Slėgis 1016 hPa
Matomumas 10 km arba daugiau
nėra debesų žemiau 1500 m ir nėra kamuolinių lietaus debesų

METAR: SASJ 241200Z 30005KT CAVOK 12/08 Q1016

Laikas: 09:49 (12:49 UTC)

Prognozė

Ataskaita buvo paskelbta 1 valandą ir 49 minutes, ne 11:00 UTC
Prognozė galioja nuo 24 metu 12 UTC su 25 metu 12 UTC
Vėjas 5 kt iš Šiaurės Vakarų
Matomumas 10 km arba daugiau
nėra debesų žemiau 1500 m ir nėra kamuolinių lietaus debesų
Tapsmas
nuo 24 metu 18 UTC su 24 metu 21 UTC
Vėjas 10 kt iš Pietų/Pietryčių
Tapsmas
nuo 25 metu 06 UTC su 25 metu 09 UTC
Vėjas 10 kt iš Vakarų

TAF: SASJ 241100Z 2412/2512 31005KT CAVOK TX28/2418Z TN09/2510Z BECMG 2418/2421 16010KT BECMG 2506/2509 28010KT

Orai ataskaitas ir orų prognozės (METAR, TAF).

turimą stotys yra geltonos ir raudonos taškus žemėlapyje.

Perkelti pele per norėdami pamatyti stoties vardą.

Tada spustelėkite, norėdami matyti oro stebėjimo ir prognozės.

Norėdami pakeisti žemėlapį: spustelėkite ant žalios mygtukų su juodo kryžiaus žemyn,; žalią mygtuką su brūkšneliu, jei norite nutolinti; arba žalių rodyklių gretimoms žemėlapius.


METAR-TAF: